sensor_id;sensor_type;location;lat;lon;timestamp;temperature;humidity
51567;DHT22;37657;53.182;5.638;2023-06-24T00:01:28;16.40;99.90
51567;DHT22;37657;53.182;5.638;2023-06-24T00:03:54;16.40;99.90
51567;DHT22;37657;53.182;5.638;2023-06-24T00:06:20;16.30;99.90
51567;DHT22;37657;53.182;5.638;2023-06-24T00:08:46;16.30;99.90
51567;DHT22;37657;53.182;5.638;2023-06-24T00:11:12;16.30;99.90
51567;DHT22;37657;53.182;5.638;2023-06-24T00:13:39;16.20;99.90
51567;DHT22;37657;53.182;5.638;2023-06-24T00:16:05;16.10;99.90
51567;DHT22;37657;53.182;5.638;2023-06-24T00:18:33;16.00;99.90
51567;DHT22;37657;53.182;5.638;2023-06-24T00:20:58;16.10;99.90
51567;DHT22;37657;53.182;5.638;2023-06-24T00:23:24;16.00;99.90
51567;DHT22;37657;53.182;5.638;2023-06-24T00:25:54;16.00;99.90
51567;DHT22;37657;53.182;5.638;2023-06-24T00:28:20;16.00;99.90
51567;DHT22;37657;53.182;5.638;2023-06-24T00:30:47;15.90;99.90
51567;DHT22;37657;53.182;5.638;2023-06-24T00:33:13;15.90;99.90
51567;DHT22;37657;53.182;5.638;2023-06-24T00:35:40;15.90;99.90
51567;DHT22;37657;53.182;5.638;2023-06-24T00:38:05;15.90;99.90
51567;DHT22;37657;53.182;5.638;2023-06-24T00:40:31;15.90;99.90
51567;DHT22;37657;53.182;5.638;2023-06-24T00:42:57;15.80;99.90
51567;DHT22;37657;53.182;5.638;2023-06-24T00:45:24;15.90;99.90
51567;DHT22;37657;53.182;5.638;2023-06-24T00:47:50;15.80;99.90
51567;DHT22;37657;53.182;5.638;2023-06-24T00:50:17;15.90;99.90
51567;DHT22;37657;53.182;5.638;2023-06-24T00:52:42;15.90;99.90
51567;DHT22;37657;53.182;5.638;2023-06-24T00:55:12;15.90;99.90
51567;DHT22;37657;53.182;5.638;2023-06-24T00:57:44;15.80;99.90
51567;DHT22;37657;53.182;5.638;2023-06-24T01:00:13;15.80;99.90
51567;DHT22;37657;53.182;5.638;2023-06-24T01:02:40;15.70;99.90
51567;DHT22;37657;53.182;5.638;2023-06-24T01:05:08;15.70;99.90
51567;DHT22;37657;53.182;5.638;2023-06-24T01:07:35;15.60;99.90
51567;DHT22;37657;53.182;5.638;2023-06-24T01:10:02;15.60;99.90
51567;DHT22;37657;53.182;5.638;2023-06-24T01:12:33;15.60;99.90
51567;DHT22;37657;53.182;5.638;2023-06-24T01:14:59;15.50;99.90
51567;DHT22;37657;53.182;5.638;2023-06-24T01:20:25;15.50;99.90
51567;DHT22;37657;53.182;5.638;2023-06-24T01:28:24;15.50;99.90
51567;DHT22;37657;53.182;5.638;2023-06-24T01:34:28;15.40;99.90
51567;DHT22;37657;53.182;5.638;2023-06-24T01:39:52;15.40;99.90
51567;DHT22;37657;53.182;5.638;2023-06-24T01:42:21;15.40;99.90
51567;DHT22;37657;53.182;5.638;2023-06-24T01:44:49;15.40;99.90
51567;DHT22;37657;53.182;5.638;2023-06-24T01:47:20;15.30;99.90
51567;DHT22;37657;53.182;5.638;2023-06-24T01:49:47;15.40;99.90
51567;DHT22;37657;53.182;5.638;2023-06-24T01:52:14;15.40;99.90
51567;DHT22;37657;53.182;5.638;2023-06-24T01:54:41;15.30;99.90
51567;DHT22;37657;53.182;5.638;2023-06-24T01:57:08;15.30;99.90
51567;DHT22;37657;53.182;5.638;2023-06-24T01:59:37;15.30;99.90
51567;DHT22;37657;53.182;5.638;2023-06-24T02:02:04;15.30;99.90
51567;DHT22;37657;53.182;5.638;2023-06-24T02:04:31;15.40;99.90
51567;DHT22;37657;53.182;5.638;2023-06-24T02:07:02;15.30;99.90
51567;DHT22;37657;53.182;5.638;2023-06-24T02:09:29;15.30;99.90
51567;DHT22;37657;53.182;5.638;2023-06-24T02:11:58;15.40;99.90
51567;DHT22;37657;53.182;5.638;2023-06-24T02:14:26;15.30;99.90
51567;DHT22;37657;53.182;5.638;2023-06-24T02:16:53;15.30;99.90
51567;DHT22;37657;53.182;5.638;2023-06-24T02:19:23;15.30;99.90
51567;DHT22;37657;53.182;5.638;2023-06-24T02:21:49;15.30;99.90
51567;DHT22;37657;53.182;5.638;2023-06-24T02:24:18;15.20;99.90
51567;DHT22;37657;53.182;5.638;2023-06-24T02:26:44;15.20;99.90
51567;DHT22;37657;53.182;5.638;2023-06-24T02:29:10;15.20;99.90
51567;DHT22;37657;53.182;5.638;2023-06-24T02:31:38;15.20;99.90
51567;DHT22;37657;53.182;5.638;2023-06-24T02:34:03;15.20;99.90
51567;DHT22;37657;53.182;5.638;2023-06-24T02:36:29;15.20;99.90
51567;DHT22;37657;53.182;5.638;2023-06-24T02:38:55;15.10;99.90
51567;DHT22;37657;53.182;5.638;2023-06-24T02:41:21;15.10;99.90
51567;DHT22;37657;53.182;5.638;2023-06-24T02:43:46;15.10;99.90
51567;DHT22;37657;53.182;5.638;2023-06-24T02:46:12;15.20;99.90
51567;DHT22;37657;53.182;5.638;2023-06-24T02:48:40;15.10;99.90
51567;DHT22;37657;53.182;5.638;2023-06-24T02:51:07;15.20;99.90
51567;DHT22;37657;53.182;5.638;2023-06-24T02:53:36;15.10;99.90
51567;DHT22;37657;53.182;5.638;2023-06-24T02:56:04;15.10;99.90
51567;DHT22;37657;53.182;5.638;2023-06-24T02:58:30;15.20;99.90
51567;DHT22;37657;53.182;5.638;2023-06-24T03:00:59;15.10;99.90
51567;DHT22;37657;53.182;5.638;2023-06-24T03:03:26;15.10;99.90
51567;DHT22;37657;53.182;5.638;2023-06-24T03:05:54;15.00;99.90
51567;DHT22;37657;53.182;5.638;2023-06-24T03:08:20;15.00;99.90
51567;DHT22;37657;53.182;5.638;2023-06-24T03:10:45;15.00;99.90
51567;DHT22;37657;53.182;5.638;2023-06-24T03:13:11;15.00;99.90
51567;DHT22;37657;53.182;5.638;2023-06-24T03:15:37;15.00;99.90
51567;DHT22;37657;53.182;5.638;2023-06-24T03:18:02;15.00;99.90
51567;DHT22;37657;53.182;5.638;2023-06-24T03:20:28;15.00;99.90
51567;DHT22;37657;53.182;5.638;2023-06-24T03:22:54;15.10;99.90
51567;DHT22;37657;53.182;5.638;2023-06-24T03:25:21;15.00;99.90
51567;DHT22;37657;53.182;5.638;2023-06-24T03:27:46;15.10;99.90
51567;DHT22;37657;53.182;5.638;2023-06-24T03:30:12;15.10;99.90
51567;DHT22;37657;53.182;5.638;2023-06-24T03:32:40;15.10;99.90
51567;DHT22;37657;53.182;5.638;2023-06-24T03:35:05;15.10;99.90
51567;DHT22;37657;53.182;5.638;2023-06-24T03:37:32;15.10;99.90
51567;DHT22;37657;53.182;5.638;2023-06-24T03:39:58;15.20;99.90
51567;DHT22;37657;53.182;5.638;2023-06-24T03:42:23;15.10;99.90
51567;DHT22;37657;53.182;5.638;2023-06-24T03:44:49;15.10;99.90
51567;DHT22;37657;53.182;5.638;2023-06-24T03:47:14;15.10;99.90
51567;DHT22;37657;53.182;5.638;2023-06-24T03:49:40;15.20;99.90
51567;DHT22;37657;53.182;5.638;2023-06-24T03:52:05;15.10;99.90
51567;DHT22;37657;53.182;5.638;2023-06-24T03:54:34;15.10;99.90
51567;DHT22;37657;53.182;5.638;2023-06-24T03:56:59;15.20;99.90
51567;DHT22;37657;53.182;5.638;2023-06-24T03:59:25;15.20;99.90
51567;DHT22;37657;53.182;5.638;2023-06-24T04:01:50;15.20;99.90
51567;DHT22;37657;53.182;5.638;2023-06-24T04:04:16;15.20;99.90
51567;DHT22;37657;53.182;5.638;2023-06-24T04:06:42;15.20;99.90
51567;DHT22;37657;53.182;5.638;2023-06-24T04:09:08;15.30;99.90
51567;DHT22;37657;53.182;5.638;2023-06-24T04:11:35;15.20;99.90
51567;DHT22;37657;53.182;5.638;2023-06-24T04:14:01;15.40;99.90
51567;DHT22;37657;53.182;5.638;2023-06-24T04:16:27;15.40;99.90
51567;DHT22;37657;53.182;5.638;2023-06-24T04:18:53;15.50;99.90
51567;DHT22;37657;53.182;5.638;2023-06-24T04:21:18;15.50;99.90
51567;DHT22;37657;53.182;5.638;2023-06-24T04:23:44;15.50;99.90
51567;DHT22;37657;53.182;5.638;2023-06-24T04:26:09;15.60;99.90
51567;DHT22;37657;53.182;5.638;2023-06-24T04:28:35;15.60;99.90
51567;DHT22;37657;53.182;5.638;2023-06-24T04:31:01;15.70;99.90
51567;DHT22;37657;53.182;5.638;2023-06-24T04:33:26;15.80;99.90
51567;DHT22;37657;53.182;5.638;2023-06-24T04:35:52;15.90;99.90
51567;DHT22;37657;53.182;5.638;2023-06-24T04:38:17;15.90;99.90
51567;DHT22;37657;53.182;5.638;2023-06-24T04:40:44;16.10;99.90
51567;DHT22;37657;53.182;5.638;2023-06-24T04:43:10;16.20;99.90
51567;DHT22;37657;53.182;5.638;2023-06-24T04:45:35;16.30;99.90
51567;DHT22;37657;53.182;5.638;2023-06-24T04:48:01;16.50;99.90
51567;DHT22;37657;53.182;5.638;2023-06-24T04:50:27;16.50;99.90
51567;DHT22;37657;53.182;5.638;2023-06-24T04:52:53;16.70;99.90
51567;DHT22;37657;53.182;5.638;2023-06-24T04:55:23;16.90;99.90
51567;DHT22;37657;53.182;5.638;2023-06-24T04:57:48;17.00;99.90
51567;DHT22;37657;53.182;5.638;2023-06-24T05:00:14;17.10;99.90
51567;DHT22;37657;53.182;5.638;2023-06-24T05:02:40;17.30;99.90
51567;DHT22;37657;53.182;5.638;2023-06-24T05:05:06;17.40;99.90
51567;DHT22;37657;53.182;5.638;2023-06-24T05:07:31;17.60;99.90
51567;DHT22;37657;53.182;5.638;2023-06-24T05:09:57;17.70;99.90
51567;DHT22;37657;53.182;5.638;2023-06-24T05:12:22;17.90;99.90
51567;DHT22;37657;53.182;5.638;2023-06-24T05:14:51;17.90;99.90
51567;DHT22;37657;53.182;5.638;2023-06-24T05:17:18;18.10;99.90
51567;DHT22;37657;53.182;5.638;2023-06-24T05:19:44;18.30;99.90
51567;DHT22;37657;53.182;5.638;2023-06-24T05:22:09;18.40;99.90
51567;DHT22;37657;53.182;5.638;2023-06-24T05:24:35;18.40;99.90
51567;DHT22;37657;53.182;5.638;2023-06-24T05:27:04;18.50;99.90
51567;DHT22;37657;53.182;5.638;2023-06-24T05:29:34;18.60;99.90
51567;DHT22;37657;53.182;5.638;2023-06-24T05:31:59;18.70;99.90
51567;DHT22;37657;53.182;5.638;2023-06-24T05:34:27;18.70;99.90
51567;DHT22;37657;53.182;5.638;2023-06-24T05:36:52;18.90;99.90
51567;DHT22;37657;53.182;5.638;2023-06-24T05:39:20;19.00;99.90
51567;DHT22;37657;53.182;5.638;2023-06-24T05:41:45;19.10;99.90
51567;DHT22;37657;53.182;5.638;2023-06-24T05:44:13;19.00;99.90
51567;DHT22;37657;53.182;5.638;2023-06-24T05:46:39;19.10;99.90
51567;DHT22;37657;53.182;5.638;2023-06-24T05:49:04;19.30;99.90
51567;DHT22;37657;53.182;5.638;2023-06-24T05:51:30;19.30;99.90
51567;DHT22;37657;53.182;5.638;2023-06-24T05:53:55;19.30;99.90
51567;DHT22;37657;53.182;5.638;2023-06-24T05:56:22;19.40;99.90
51567;DHT22;37657;53.182;5.638;2023-06-24T05:58:48;19.50;99.90
51567;DHT22;37657;53.182;5.638;2023-06-24T06:01:14;19.50;99.90
51567;DHT22;37657;53.182;5.638;2023-06-24T06:03:39;19.60;99.90
51567;DHT22;37657;53.182;5.638;2023-06-24T06:06:05;19.70;99.90
51567;DHT22;37657;53.182;5.638;2023-06-24T06:08:32;19.80;99.90
51567;DHT22;37657;53.182;5.638;2023-06-24T06:10:58;19.90;99.90
51567;DHT22;37657;53.182;5.638;2023-06-24T06:13:23;19.90;99.90
51567;DHT22;37657;53.182;5.638;2023-06-24T06:15:49;20.00;99.90
51567;DHT22;37657;53.182;5.638;2023-06-24T06:18:14;20.10;99.90
51567;DHT22;37657;53.182;5.638;2023-06-24T06:20:40;20.10;99.90
51567;DHT22;37657;53.182;5.638;2023-06-24T06:23:06;20.10;99.90
51567;DHT22;37657;53.182;5.638;2023-06-24T06:25:32;20.30;99.90
51567;DHT22;37657;53.182;5.638;2023-06-24T06:27:58;20.30;99.90
51567;DHT22;37657;53.182;5.638;2023-06-24T06:30:23;20.30;99.90
51567;DHT22;37657;53.182;5.638;2023-06-24T06:32:49;20.30;99.90
51567;DHT22;37657;53.182;5.638;2023-06-24T06:35:14;20.40;99.90
51567;DHT22;37657;53.182;5.638;2023-06-24T06:37:40;20.50;99.90
51567;DHT22;37657;53.182;5.638;2023-06-24T06:40:06;20.50;99.90
51567;DHT22;37657;53.182;5.638;2023-06-24T06:42:32;20.60;99.90
51567;DHT22;37657;53.182;5.638;2023-06-24T06:44:57;20.60;99.90
51567;DHT22;37657;53.182;5.638;2023-06-24T06:47:23;20.60;99.90
51567;DHT22;37657;53.182;5.638;2023-06-24T06:49:49;20.60;99.90
51567;DHT22;37657;53.182;5.638;2023-06-24T06:52:14;20.70;99.90
51567;DHT22;37657;53.182;5.638;2023-06-24T06:54:40;20.70;99.90
51567;DHT22;37657;53.182;5.638;2023-06-24T06:57:05;20.70;99.90
51567;DHT22;37657;53.182;5.638;2023-06-24T06:59:31;20.70;99.90
51567;DHT22;37657;53.182;5.638;2023-06-24T07:01:57;20.80;99.90
51567;DHT22;37657;53.182;5.638;2023-06-24T07:04:23;20.80;99.90
51567;DHT22;37657;53.182;5.638;2023-06-24T07:06:48;20.80;99.90
51567;DHT22;37657;53.182;5.638;2023-06-24T07:09:14;20.90;99.90
51567;DHT22;37657;53.182;5.638;2023-06-24T07:11:41;20.90;99.90
51567;DHT22;37657;53.182;5.638;2023-06-24T07:14:06;20.90;99.90
51567;DHT22;37657;53.182;5.638;2023-06-24T07:16:32;21.00;99.90
51567;DHT22;37657;53.182;5.638;2023-06-24T07:18:57;21.00;99.90
51567;DHT22;37657;53.182;5.638;2023-06-24T07:21:23;21.00;99.90
51567;DHT22;37657;53.182;5.638;2023-06-24T07:23:49;21.10;99.90
51567;DHT22;37657;53.182;5.638;2023-06-24T07:26:14;21.10;99.90
51567;DHT22;37657;53.182;5.638;2023-06-24T07:28:40;21.10;99.90
51567;DHT22;37657;53.182;5.638;2023-06-24T07:31:05;21.10;99.90
51567;DHT22;37657;53.182;5.638;2023-06-24T07:33:31;21.20;99.90
51567;DHT22;37657;53.182;5.638;2023-06-24T07:35:57;21.30;99.90
51567;DHT22;37657;53.182;5.638;2023-06-24T07:38:22;21.30;99.90
51567;DHT22;37657;53.182;5.638;2023-06-24T07:40:48;21.40;99.90
51567;DHT22;37657;53.182;5.638;2023-06-24T07:43:14;21.40;99.90
51567;DHT22;37657;53.182;5.638;2023-06-24T07:45:40;21.50;99.90
51567;DHT22;37657;53.182;5.638;2023-06-24T07:48:05;21.60;99.90
51567;DHT22;37657;53.182;5.638;2023-06-24T07:50:32;21.60;99.90
51567;DHT22;37657;53.182;5.638;2023-06-24T07:52:58;21.70;99.90
51567;DHT22;37657;53.182;5.638;2023-06-24T07:55:23;21.70;99.90
51567;DHT22;37657;53.182;5.638;2023-06-24T07:57:49;21.70;99.90
51567;DHT22;37657;53.182;5.638;2023-06-24T08:00:15;21.70;99.90
51567;DHT22;37657;53.182;5.638;2023-06-24T08:02:41;21.80;99.90
51567;DHT22;37657;53.182;5.638;2023-06-24T08:05:07;21.80;99.90
51567;DHT22;37657;53.182;5.638;2023-06-24T08:07:35;21.80;99.90
51567;DHT22;37657;53.182;5.638;2023-06-24T08:10:00;21.90;99.90
51567;DHT22;37657;53.182;5.638;2023-06-24T08:12:26;21.90;99.90
51567;DHT22;37657;53.182;5.638;2023-06-24T08:14:51;22.00;99.90
51567;DHT22;37657;53.182;5.638;2023-06-24T08:17:17;22.00;99.90
51567;DHT22;37657;53.182;5.638;2023-06-24T08:19:42;22.00;99.90
51567;DHT22;37657;53.182;5.638;2023-06-24T08:22:08;22.10;99.90
51567;DHT22;37657;53.182;5.638;2023-06-24T08:24:34;22.20;99.90
51567;DHT22;37657;53.182;5.638;2023-06-24T08:26:59;22.30;99.90
51567;DHT22;37657;53.182;5.638;2023-06-24T08:29:25;22.40;99.90
51567;DHT22;37657;53.182;5.638;2023-06-24T08:31:50;22.50;99.90
51567;DHT22;37657;53.182;5.638;2023-06-24T08:34:16;22.60;99.90
51567;DHT22;37657;53.182;5.638;2023-06-24T08:36:41;22.70;99.90
51567;DHT22;37657;53.182;5.638;2023-06-24T08:39:08;22.90;99.90
51567;DHT22;37657;53.182;5.638;2023-06-24T08:41:33;23.00;99.90
51567;DHT22;37657;53.182;5.638;2023-06-24T08:43:59;23.20;99.90
51567;DHT22;37657;53.182;5.638;2023-06-24T08:46:25;23.20;99.90
51567;DHT22;37657;53.182;5.638;2023-06-24T08:49:00;23.30;99.90
51567;DHT22;37657;53.182;5.638;2023-06-24T08:51:29;23.50;99.90
51567;DHT22;37657;53.182;5.638;2023-06-24T08:53:57;23.60;99.90
51567;DHT22;37657;53.182;5.638;2023-06-24T08:56:23;23.70;99.90
51567;DHT22;37657;53.182;5.638;2023-06-24T08:58:50;23.80;99.90
51567;DHT22;37657;53.182;5.638;2023-06-24T09:01:16;23.90;99.90
51567;DHT22;37657;53.182;5.638;2023-06-24T09:03:42;24.00;99.90
51567;DHT22;37657;53.182;5.638;2023-06-24T09:06:08;24.10;99.90
51567;DHT22;37657;53.182;5.638;2023-06-24T09:08:33;24.10;99.90
51567;DHT22;37657;53.182;5.638;2023-06-24T09:11:00;24.20;99.90
51567;DHT22;37657;53.182;5.638;2023-06-24T09:13:35;24.20;99.90
51567;DHT22;37657;53.182;5.638;2023-06-24T09:16:22;24.30;99.90
51567;DHT22;37657;53.182;5.638;2023-06-24T09:18:48;24.40;99.90
51567;DHT22;37657;53.182;5.638;2023-06-24T09:21:24;24.50;99.90
51567;DHT22;37657;53.182;5.638;2023-06-24T09:23:57;24.60;99.90
51567;DHT22;37657;53.182;5.638;2023-06-24T09:26:25;24.60;99.90
51567;DHT22;37657;53.182;5.638;2023-06-24T09:28:51;24.70;99.90
51567;DHT22;37657;53.182;5.638;2023-06-24T09:31:17;24.60;99.90
51567;DHT22;37657;53.182;5.638;2023-06-24T09:33:43;24.70;99.90
51567;DHT22;37657;53.182;5.638;2023-06-24T09:36:15;24.70;99.90
51567;DHT22;37657;53.182;5.638;2023-06-24T09:38:42;24.70;99.90
51567;DHT22;37657;53.182;5.638;2023-06-24T09:41:09;24.70;99.90
51567;DHT22;37657;53.182;5.638;2023-06-24T09:43:36;24.80;99.90
51567;DHT22;37657;53.182;5.638;2023-06-24T09:46:03;24.80;99.90
51567;DHT22;37657;53.182;5.638;2023-06-24T09:48:28;24.80;99.90
51567;DHT22;37657;53.182;5.638;2023-06-24T09:51:00;24.90;99.90
51567;DHT22;37657;53.182;5.638;2023-06-24T09:53:30;24.90;99.90
51567;DHT22;37657;53.182;5.638;2023-06-24T09:55:58;24.90;99.90
51567;DHT22;37657;53.182;5.638;2023-06-24T09:58:24;25.00;99.90
51567;DHT22;37657;53.182;5.638;2023-06-24T10:00:50;25.10;99.90
51567;DHT22;37657;53.182;5.638;2023-06-24T10:03:17;25.20;99.90
51567;DHT22;37657;53.182;5.638;2023-06-24T10:05:43;25.20;99.90
51567;DHT22;37657;53.182;5.638;2023-06-24T10:08:10;25.20;99.90
51567;DHT22;37657;53.182;5.638;2023-06-24T10:10:35;25.20;99.90
51567;DHT22;37657;53.182;5.638;2023-06-24T10:13:01;25.30;99.90
51567;DHT22;37657;53.182;5.638;2023-06-24T10:15:27;25.30;99.90
51567;DHT22;37657;53.182;5.638;2023-06-24T10:17:52;25.40;99.90
51567;DHT22;37657;53.182;5.638;2023-06-24T10:20:25;25.50;99.90
51567;DHT22;37657;53.182;5.638;2023-06-24T10:22:52;25.50;99.90
51567;DHT22;37657;53.182;5.638;2023-06-24T10:25:17;25.60;99.90
51567;DHT22;37657;53.182;5.638;2023-06-24T10:27:44;25.60;99.90
51567;DHT22;37657;53.182;5.638;2023-06-24T10:30:17;25.70;99.90
51567;DHT22;37657;53.182;5.638;2023-06-24T10:32:52;25.50;99.90
51567;DHT22;37657;53.182;5.638;2023-06-24T10:35:27;25.60;99.90
51567;DHT22;37657;53.182;5.638;2023-06-24T10:37:58;25.60;99.90
51567;DHT22;37657;53.182;5.638;2023-06-24T10:40:52;25.60;99.90
51567;DHT22;37657;53.182;5.638;2023-06-24T10:45:53;25.60;99.90
51567;DHT22;37657;53.182;5.638;2023-06-24T10:48:18;25.70;99.90
51567;DHT22;37657;53.182;5.638;2023-06-24T10:50:45;25.70;99.90
51567;DHT22;37657;53.182;5.638;2023-06-24T10:53:12;25.80;99.90
51567;DHT22;37657;53.182;5.638;2023-06-24T10:55:39;25.80;99.90
51567;DHT22;37657;53.182;5.638;2023-06-24T10:58:12;25.90;99.90
51567;DHT22;37657;53.182;5.638;2023-06-24T11:00:42;25.80;99.90
51567;DHT22;37657;53.182;5.638;2023-06-24T11:03:10;25.90;99.90
51567;DHT22;37657;53.182;5.638;2023-06-24T11:05:44;25.90;99.90
51567;DHT22;37657;53.182;5.638;2023-06-24T11:08:10;25.90;99.90
51567;DHT22;37657;53.182;5.638;2023-06-24T11:13:09;26.00;99.90
51567;DHT22;37657;53.182;5.638;2023-06-24T11:15:34;26.00;99.90
51567;DHT22;37657;53.182;5.638;2023-06-24T11:18:02;25.80;99.90
51567;DHT22;37657;53.182;5.638;2023-06-24T11:20:29;25.90;99.90
51567;DHT22;37657;53.182;5.638;2023-06-24T11:22:55;25.90;99.90
51567;DHT22;37657;53.182;5.638;2023-06-24T11:25:22;26.00;99.90
51567;DHT22;37657;53.182;5.638;2023-06-24T11:27:49;26.00;99.90
51567;DHT22;37657;53.182;5.638;2023-06-24T11:30:16;26.00;99.90
51567;DHT22;37657;53.182;5.638;2023-06-24T11:32:43;26.20;99.90
51567;DHT22;37657;53.182;5.638;2023-06-24T11:35:10;26.00;99.90
51567;DHT22;37657;53.182;5.638;2023-06-24T11:37:36;26.00;99.90
51567;DHT22;37657;53.182;5.638;2023-06-24T11:40:07;26.10;99.90
51567;DHT22;37657;53.182;5.638;2023-06-24T11:42:37;26.00;99.90
51567;DHT22;37657;53.182;5.638;2023-06-24T11:45:06;26.00;99.90
51567;DHT22;37657;53.182;5.638;2023-06-24T11:47:35;26.00;99.90
51567;DHT22;37657;53.182;5.638;2023-06-24T11:50:03;26.00;99.90
51567;DHT22;37657;53.182;5.638;2023-06-24T11:52:43;26.20;99.90
51567;DHT22;37657;53.182;5.638;2023-06-24T11:55:20;26.00;99.90
51567;DHT22;37657;53.182;5.638;2023-06-24T11:58:02;25.90;99.90
51567;DHT22;37657;53.182;5.638;2023-06-24T12:00:31;26.00;99.90
51567;DHT22;37657;53.182;5.638;2023-06-24T12:03:00;26.00;99.90
51567;DHT22;37657;53.182;5.638;2023-06-24T12:05:33;26.20;99.90
51567;DHT22;37657;53.182;5.638;2023-06-24T12:08:07;26.20;99.90
51567;DHT22;37657;53.182;5.638;2023-06-24T12:10:34;26.20;99.90
51567;DHT22;37657;53.182;5.638;2023-06-24T12:13:01;26.20;99.90
51567;DHT22;37657;53.182;5.638;2023-06-24T12:15:27;26.20;99.90
51567;DHT22;37657;53.182;5.638;2023-06-24T12:17:53;26.30;99.90
51567;DHT22;37657;53.182;5.638;2023-06-24T12:20:19;26.30;99.90
51567;DHT22;37657;53.182;5.638;2023-06-24T12:22:46;26.40;99.90
51567;DHT22;37657;53.182;5.638;2023-06-24T12:25:12;26.40;99.90
51567;DHT22;37657;53.182;5.638;2023-06-24T12:27:38;26.40;99.90
51567;DHT22;37657;53.182;5.638;2023-06-24T12:30:06;26.50;99.90
51567;DHT22;37657;53.182;5.638;2023-06-24T12:32:32;26.50;99.90
51567;DHT22;37657;53.182;5.638;2023-06-24T12:34:57;26.50;99.90
51567;DHT22;37657;53.182;5.638;2023-06-24T12:37:23;26.50;99.90
51567;DHT22;37657;53.182;5.638;2023-06-24T12:39:49;26.60;99.90
51567;DHT22;37657;53.182;5.638;2023-06-24T12:42:16;26.60;99.90
51567;DHT22;37657;53.182;5.638;2023-06-24T12:44:42;26.60;99.90
51567;DHT22;37657;53.182;5.638;2023-06-24T12:47:07;26.70;99.90
51567;DHT22;37657;53.182;5.638;2023-06-24T12:49:33;26.80;99.90
51567;DHT22;37657;53.182;5.638;2023-06-24T12:51:58;26.80;99.90
51567;DHT22;37657;53.182;5.638;2023-06-24T12:54:24;26.90;99.90
51567;DHT22;37657;53.182;5.638;2023-06-24T12:56:49;26.90;99.90
51567;DHT22;37657;53.182;5.638;2023-06-24T12:59:15;27.10;99.90
51567;DHT22;37657;53.182;5.638;2023-06-24T13:01:41;27.20;99.90
51567;DHT22;37657;53.182;5.638;2023-06-24T13:04:10;27.20;99.90
51567;DHT22;37657;53.182;5.638;2023-06-24T13:06:36;27.20;99.90
51567;DHT22;37657;53.182;5.638;2023-06-24T13:09:01;27.20;99.90
51567;DHT22;37657;53.182;5.638;2023-06-24T13:11:28;27.30;99.90
51567;DHT22;37657;53.182;5.638;2023-06-24T13:13:54;27.30;99.90
51567;DHT22;37657;53.182;5.638;2023-06-24T13:16:19;27.20;99.90
51567;DHT22;37657;53.182;5.638;2023-06-24T13:18:45;27.30;99.90
51567;DHT22;37657;53.182;5.638;2023-06-24T13:21:10;27.30;99.90
51567;DHT22;37657;53.182;5.638;2023-06-24T13:23:36;27.30;99.90
51567;DHT22;37657;53.182;5.638;2023-06-24T13:26:04;27.30;99.90
51567;DHT22;37657;53.182;5.638;2023-06-24T13:28:29;27.20;99.90
51567;DHT22;37657;53.182;5.638;2023-06-24T13:30:57;27.00;99.90
51567;DHT22;37657;53.182;5.638;2023-06-24T13:33:22;27.10;99.90
51567;DHT22;37657;53.182;5.638;2023-06-24T13:35:48;27.10;99.90
51567;DHT22;37657;53.182;5.638;2023-06-24T13:38:15;27.00;99.90
51567;DHT22;37657;53.182;5.638;2023-06-24T13:40:40;26.90;99.90
51567;DHT22;37657;53.182;5.638;2023-06-24T13:43:06;27.00;99.90
51567;DHT22;37657;53.182;5.638;2023-06-24T13:45:32;26.80;99.90
51567;DHT22;37657;53.182;5.638;2023-06-24T13:47:57;26.70;99.90
51567;DHT22;37657;53.182;5.638;2023-06-24T13:50:23;26.70;99.90
51567;DHT22;37657;53.182;5.638;2023-06-24T13:52:48;26.80;99.90
51567;DHT22;37657;53.182;5.638;2023-06-24T13:55:14;26.70;99.90
51567;DHT22;37657;53.182;5.638;2023-06-24T13:57:40;26.80;99.90
51567;DHT22;37657;53.182;5.638;2023-06-24T14:00:06;26.80;99.90
51567;DHT22;37657;53.182;5.638;2023-06-24T14:02:32;26.80;99.90
51567;DHT22;37657;53.182;5.638;2023-06-24T14:04:57;27.00;99.90
51567;DHT22;37657;53.182;5.638;2023-06-24T14:07:23;26.80;99.90
51567;DHT22;37657;53.182;5.638;2023-06-24T14:09:49;26.80;99.90
51567;DHT22;37657;53.182;5.638;2023-06-24T14:12:14;26.80;99.90
51567;DHT22;37657;53.182;5.638;2023-06-24T14:14:40;26.80;99.90
51567;DHT22;37657;53.182;5.638;2023-06-24T14:17:06;26.70;99.90
51567;DHT22;37657;53.182;5.638;2023-06-24T14:19:37;26.60;99.90
51567;DHT22;37657;53.182;5.638;2023-06-24T14:22:03;26.60;99.90
51567;DHT22;37657;53.182;5.638;2023-06-24T14:24:28;26.50;99.90
51567;DHT22;37657;53.182;5.638;2023-06-24T14:26:54;26.50;99.90
51567;DHT22;37657;53.182;5.638;2023-06-24T14:29:19;26.50;99.90
51567;DHT22;37657;53.182;5.638;2023-06-24T14:31:45;26.50;99.90
51567;DHT22;37657;53.182;5.638;2023-06-24T14:34:10;26.60;99.90
51567;DHT22;37657;53.182;5.638;2023-06-24T14:36:36;26.40;99.90
51567;DHT22;37657;53.182;5.638;2023-06-24T14:39:02;26.40;99.90
51567;DHT22;37657;53.182;5.638;2023-06-24T14:41:27;26.40;99.90
51567;DHT22;37657;53.182;5.638;2023-06-24T14:43:53;26.40;99.90
51567;DHT22;37657;53.182;5.638;2023-06-24T14:46:19;26.50;99.90
51567;DHT22;37657;53.182;5.638;2023-06-24T14:48:44;26.50;99.90
51567;DHT22;37657;53.182;5.638;2023-06-24T14:51:10;26.50;99.90
51567;DHT22;37657;53.182;5.638;2023-06-24T14:53:35;26.60;99.90
51567;DHT22;37657;53.182;5.638;2023-06-24T14:56:01;26.60;99.90
51567;DHT22;37657;53.182;5.638;2023-06-24T14:58:26;26.60;99.90
51567;DHT22;37657;53.182;5.638;2023-06-24T15:00:52;26.50;99.90
51567;DHT22;37657;53.182;5.638;2023-06-24T15:03:17;26.40;99.90
51567;DHT22;37657;53.182;5.638;2023-06-24T15:05:43;26.50;99.90
51567;DHT22;37657;53.182;5.638;2023-06-24T15:08:10;26.40;99.90
51567;DHT22;37657;53.182;5.638;2023-06-24T15:10:35;26.30;99.90
51567;DHT22;37657;53.182;5.638;2023-06-24T15:13:01;26.50;99.90
51567;DHT22;37657;53.182;5.638;2023-06-24T15:15:26;26.30;99.90
51567;DHT22;37657;53.182;5.638;2023-06-24T15:17:52;26.30;99.90
51567;DHT22;37657;53.182;5.638;2023-06-24T15:20:17;26.30;99.90
51567;DHT22;37657;53.182;5.638;2023-06-24T15:22:43;26.30;99.90
51567;DHT22;37657;53.182;5.638;2023-06-24T15:25:09;26.30;99.90
51567;DHT22;37657;53.182;5.638;2023-06-24T15:27:34;26.40;99.90
51567;DHT22;37657;53.182;5.638;2023-06-24T15:30:00;26.40;99.90
51567;DHT22;37657;53.182;5.638;2023-06-24T15:32:25;26.50;99.90
51567;DHT22;37657;53.182;5.638;2023-06-24T15:34:51;26.30;99.90
51567;DHT22;37657;53.182;5.638;2023-06-24T15:37:17;26.20;99.90
51567;DHT22;37657;53.182;5.638;2023-06-24T15:39:43;26.40;99.90
51567;DHT22;37657;53.182;5.638;2023-06-24T15:42:08;26.40;99.90
51567;DHT22;37657;53.182;5.638;2023-06-24T15:44:35;26.30;99.90
51567;DHT22;37657;53.182;5.638;2023-06-24T15:47:01;26.10;99.90